Airfield :
LOGIN :

Register | Disclaimer

   EN    FR    IT 

 










Legend :    VFR   Marginal VFR   IFR   Intensive IFR   Very Intensive IFR
Visi :
Ceiling :
>= 8 km
>= 3000ft
5 to 8 km
1000 to 3000 ft
1500m to 5 km
500 to 1000 ft
800 to 1500m
200 to 500 ft
< 800m
< 200 ft
Symbols :   Thunderstorms  Fog  Heavy snow  Heavy precipitations  Wind > 20 kt
SIGMETs :     Misc.  Thunderstorms  Icing  Turbulence  Mountain Waves  Volcanic Ashes







- Airport Elevation : 1521 ft
- IATA code : NCY
- Download approach charts


LFLP - Annecy

CURRENT METAR :
  • 171830Z AUTO VRB03KT 9999 ///TCU 02/01 Q1015 TEMPO SHRA BKN014

EXPIRED METARs :
  • 171800Z AUTO 05007KT 9999 FEW028 BKN120 02/00 Q1015 TEMPO SHRA BKN014
  • 171730Z AUTO 01007KT 340V050 9999 -SNRA FEW014/// SCT020/// BKN025/// ///TCU 03/01 Q1015 TEMPO SHRA BKN014
  • 171700Z AUTO VRB02KT 9999 FEW038 BKN047 OVC056 04/02 Q1014 TEMPO SHRA BKN014
  • 171630Z AUTO 11006KT 9999 -RA SCT038 BKN066 04/02 Q1014 TEMPO SHRA BKN014
  • 171600Z AUTO VRB01KT 9999 -RA FEW027 BKN037 BKN064 05/03 Q1014 TEMPO SHRA BKN014

TAF AMD TAF LFLP
Valid from the 17 at 15:00 until the 18 at 15:00 UTC


171504Z 1715/1815 VRB03KT 9999 BKN040
TEMPO 1715/1805 SHRA BKN014
PROB30
TEMPO 1722/1803 3000 -SHRASN SCT025TCU BKN030
TEMPO 1803/1809 BKN014
BECMG 1809/1812 36005KT FEW040
No reported NOTAMs for that airfield.



MET'MAP, your aeronautical weather chart ! - Copyright ORBIFLY December 2007 - Disclaimer

ORBIFLY MET'MAP TEAM :

Programming & Development : Alexandra Zaïnal
Concept & Development : Baudouin d'Aumeries
Co-Development & Prog : Marc-Olivier Méhu
Technical & hardware support : Manuel Goepfert

Contact : metmap@orbifly.com




SOURCES & CREDITS :

   NOAA